Time;durP1;ratioP1;P1;durP2;ratioP2;P2;SDS_P1;SDS_P2;PMS_P1;PMS_P2;Temp;Humidity;BMP_temperature;BMP_pressure;BME280_temperature;BME280_humidity;BME280_pressure;Samples;Min_cycle;Max_cycle;Signal;HPM_P1;HPM_P2
2019/08/16 15:04:11;;;;;;;6.3;3.5;;;;;;;22.84;57.12598;938.9269;;;;
2019/08/16 15:06:35;;;;;;;6.1;3.5;;;;;;;22.81;57.08887;938.9167;;;;
2019/08/16 15:09:15;;;;;;;6.7;3.2;;;;;;;22.76;57.32813;938.9219;;;;
2019/08/16 15:14:56;;;;;;;3.7;1.4;;;;;;;23.92;48.48438;939.0792;;;;
2019/08/16 15:17:33;;;;;;;4.3;1.5;;;;;;;24.27;47.35742;939.0218;;;;
2019/08/16 15:20:11;;;;;;;4.3;1.7;;;;;;;24.14;46.88379;938.9678;;;;
2019/08/16 15:22:40;;;;;;;5.4;1.7;;;;;;;24.17;47.71094;939.0455;;;;
2019/08/16 15:25:13;;;;;;;3.4;1.7;;;;;;;24;46.23242;939.0817;;;;
2019/08/16 15:27:39;;;;;;;4.5;1.6;;;;;;;24;46.22168;939.0262;;;;
2019/08/16 15:30:22;;;;;;;4.5;1.5;;;;;;;23.91;47.15332;939.0762;;;;
2019/08/16 15:32:34;;;;;;;3.8;1.6;;;;;;;24.04;46.44824;938.9932;;;;
2019/08/16 15:35:05;;;;;;;5.1;1.8;;;;;;;23.61;46.76758;939.0635;;;;
2019/08/16 15:37:30;;;;;;;5.4;1.8;;;;;;;23.46;47.65918;939.0266;;;;
2019/08/16 15:39:59;;;;;;;3.5;1.7;;;;;;;23.33;47.98535;938.9989;;;;
2019/08/16 15:42:30;;;;;;;4.6;1.8;;;;;;;23.53;49.83008;939.0028;;;;
2019/08/16 15:45:02;;;;;;;4.4;1.6;;;;;;;23.45;48.85742;938.9733;;;;
2019/08/16 15:47:31;;;;;;;5;1.9;;;;;;;23.36;49.10547;938.9085;;;;
2019/08/16 15:50:02;;;;;;;4;1.9;;;;;;;23.1;49.93457;938.8912;;;;
2019/08/16 15:52:34;;;;;;;4.6;1.6;;;;;;;23.14;49.85645;938.8526;;;;
2019/08/16 15:54:58;;;;;;;3.7;1.8;;;;;;;22.74;48.55566;938.8273;;;;
2019/08/16 15:57:38;;;;;;;4.2;1.7;;;;;;;22.68;49.20605;938.8541;;;;
2019/08/16 16:00:04;;;;;;;3.4;1.6;;;;;;;22.16;49.95898;938.8081;;;;
2019/08/16 16:02:38;;;;;;;2.9;1.6;;;;;;;22.44;49.95508;938.8566;;;;
2019/08/16 16:05:07;;;;;;;4.7;1.7;;;;;;;22.64;50.61035;938.8394;;;;
2019/08/16 16:07:40;;;;;;;3.3;1.8;;;;;;;22.27;51.40137;938.7486;;;;
2019/08/16 16:10:11;;;;;;;3.6;1.8;;;;;;;22.44;50.08398;938.8095;;;;
2019/08/16 16:12:33;;;;;;;3.8;1.6;;;;;;;22.04;49.92188;938.7506;;;;
2019/08/16 16:15:01;;;;;;;3.5;1.6;;;;;;;21.99;50.64258;938.7267;;;;
2019/08/16 16:17:31;;;;;;;5.1;1.7;;;;;;;22.27;51.4248;938.7391;;;;
2019/08/16 16:20:38;;;;;;;3.9;1.8;;;;;;;22.13;52.50977;938.6786;;;;
2019/08/16 16:22:42;;;;;;;5.2;1.8;;;;;;;21.81;52.66113;938.6617;;;;
2019/08/16 16:25:17;;;;;;;3.5;1.7;;;;;;;21.6;52.6123;938.653;;;;
2019/08/16 16:27:38;;;;;;;4.2;1.7;;;;;;;21.88;53.33594;938.6591;;;;
2019/08/16 16:30:22;;;;;;;5.2;1.7;;;;;;;21.75;53.37891;938.6128;;;;
2019/08/16 16:32:34;;;;;;;4.6;1.8;;;;;;;22.08;52.8916;938.6406;;;;
2019/08/16 16:35:00;;;;;;;3.9;1.7;;;;;;;21.92;53.21191;938.5984;;;;
2019/08/16 16:37:26;;;;;;;3.8;1.7;;;;;;;21.81;53.28125;938.537;;;;
2019/08/16 16:39:54;;;;;;;6.2;2;;;;;;;21.46;53.94141;938.5547;;;;
2019/08/16 16:44:49;;;;;;;7;2.2;;;;;;;21.65;54.74805;938.4988;;;;
2019/08/16 16:47:14;;;;;;;4.7;2;;;;;;;21.67;53.95508;938.5231;;;;
2019/08/16 16:49:44;;;;;;;4.8;2;;;;;;;21.71;54.49902;938.5394;;;;
2019/08/16 16:52:35;;;;;;;5.5;1.9;;;;;;;21.66;54.64551;938.5005;;;;
2019/08/16 16:54:52;;;;;;;4.1;2;;;;;;;21.51;55.49316;938.5012;;;;
2019/08/16 16:57:26;;;;;;;5.2;2.2;;;;;;;21.02;57.79492;938.5342;;;;
2019/08/16 16:59:47;;;;;;;3.5;1.8;;;;;;;20.93;58.69434;938.4743;;;;
2019/08/16 17:02:21;;;;;;;5.7;2;;;;;;;20.78;59.39941;938.5287;;;;
2019/08/16 17:04:52;;;;;;;9.2;2.3;;;;;;;20.44;59.89063;938.5737;;;;
2019/08/16 17:07:22;;;;;;;6.1;2.4;;;;;;;20.69;61.2334;938.4595;;;;
2019/08/16 17:09:46;;;;;;;5.1;2.2;;;;;;;20.57;60.7832;938.5144;;;;
2019/08/16 17:12:33;;;;;;;5.8;2.6;;;;;;;20.24;60.56348;938.493;;;;
2019/08/16 17:15:05;;;;;;;10.5;6.7;;;;;;;20.18;60.96387;938.4451;;;;
2019/08/16 17:17:36;;;;;;;8.6;3;;;;;;;19.88;62.76563;938.4537;;;;
2019/08/16 17:20:03;;;;;;;6.8;2;;;;;;;19.8;62.93066;938.4441;;;;
2019/08/16 17:22:38;;;;;;;4.2;2.3;;;;;;;19.78;62.99609;938.4155;;;;
2019/08/16 17:25:11;;;;;;;4.7;2.3;;;;;;;19.75;63.95996;938.4138;;;;
2019/08/16 17:27:39;;;;;;;5.1;2.1;;;;;;;19.8;63.85156;938.4053;;;;
2019/08/16 17:30:06;;;;;;;6.6;2.2;;;;;;;19.52;63.34473;938.3834;;;;
2019/08/16 17:32:36;;;;;;;7.5;3.1;;;;;;;19.48;65.05176;938.4386;;;;
2019/08/16 17:35:06;;;;;;;8;3;;;;;;;19.36;66.4209;938.3549;;;;
2019/08/16 17:37:36;;;;;;;5;2.9;;;;;;;19.16;66.99609;938.4109;;;;
2019/08/16 17:40:04;;;;;;;7.1;3.1;;;;;;;18.93;68.08984;938.3853;;;;
2019/08/16 17:42:48;;;;;;;6.8;2.8;;;;;;;18.74;68.40918;938.4609;;;;
2019/08/16 17:45:10;;;;;;;6.2;2.9;;;;;;;18.56;69.97461;938.4586;;;;
2019/08/16 17:47:40;;;;;;;6.3;2.2;;;;;;;18.46;69.48047;938.4608;;;;
2019/08/16 17:50:04;;;;;;;6;2.7;;;;;;;18.44;70.16504;938.4651;;;;
2019/08/16 17:52:35;;;;;;;4.4;2.4;;;;;;;18.41;69.46191;938.5413;;;;
2019/08/16 17:55:10;;;;;;;4.8;2.3;;;;;;;18.36;69.81543;938.5486;;;;
2019/08/16 17:57:43;;;;;;;6;2.3;;;;;;;18.31;69.74902;938.5851;;;;
2019/08/16 18:00:07;;;;;;;6.1;2.5;;;;;;;18.28;69.23242;938.5938;;;;
2019/08/16 18:02:39;;;;;;;6.6;2.4;;;;;;;18.23;68.64355;938.6061;;;;
2019/08/16 18:05:03;;;;;;;6.9;2.7;;;;;;;18.27;69.8125;938.6819;;;;
2019/08/16 18:08:55;;;;;;;7.8;2.8;;;;;;;18.28;70.7666;938.6744;;;;
2019/08/16 18:11:06;;;;;;;9.3;2.7;;;;;;;19.08;68.49805;938.705;;;;
2019/08/16 18:13:32;;;;;;;8.3;4;;;;;;;19.43;68.06152;938.7541;;;;
2019/08/16 18:16:07;;;;;;;11.8;5.2;;;;;;;19.77;65.0127;938.7446;;;;
2019/08/16 18:18:38;;;;;;;9.9;3.9;;;;;;;19.64;64.81738;938.7352;;;;
2019/08/16 18:21:16;;;;;;;6.9;3.1;;;;;;;19.32;66.09961;938.7653;;;;
2019/08/16 18:23:43;;;;;;;8.6;2.7;;;;;;;19.02;67.10254;938.7136;;;;
2019/08/16 18:26:14;;;;;;;6.1;3.2;;;;;;;18.84;67.20313;938.7496;;;;
2019/08/16 18:29:40;;;;;;;5.5;2.4;;;;;;;18.63;68.80957;938.7635;;;;
2019/08/16 18:32:16;;;;;;;5.7;2.9;;;;;;;18.48;69.125;938.9433;;;;
2019/08/16 18:34:53;;;;;;;8;3.4;;;;;;;18.23;69.72363;938.9559;;;;
2019/08/16 18:37:23;;;;;;;4.9;2.6;;;;;;;18.1;68.92578;939.0226;;;;
2019/08/16 18:39:50;;;;;;;6.6;2.9;;;;;;;18.05;69.59082;939.0275;;;;
2019/08/16 18:42:21;;;;;;;6.4;3.1;;;;;;;17.97;70.07715;939.0295;;;;
2019/08/16 18:44:47;;;;;;;9;2.9;;;;;;;18.03;70.49219;939.048;;;;
2019/08/16 18:47:18;;;;;;;8.9;3.4;;;;;;;17.95;70.84082;939.0048;;;;
2019/08/16 18:49:52;;;;;;;7.6;3.7;;;;;;;17.91;70.60449;939.0272;;;;
2019/08/16 18:52:23;;;;;;;10.6;5.4;;;;;;;17.89;70.56543;938.9816;;;;
2019/08/16 18:54:59;;;;;;;8.8;3.6;;;;;;;17.71;70.9541;939.0223;;;;
2019/08/16 18:57:28;;;;;;;11.1;3.2;;;;;;;17.75;71.49414;939.0539;;;;
2019/08/16 19:00:03;;;;;;;5.6;3.1;;;;;;;17.8;71.72168;939.0499;;;;
2019/08/16 19:02:27;;;;;;;7.2;3.2;;;;;;;17.8;71.53613;939.0418;;;;
2019/08/16 19:04:57;;;;;;;8.3;3.3;;;;;;;17.81;71.39941;939.1061;;;;
2019/08/16 19:07:26;;;;;;;9.8;3.4;;;;;;;17.77;71.54297;939.0728;;;;
2019/08/16 19:09:52;;;;;;;10;3.5;;;;;;;17.73;71.55078;939.0952;;;;
2019/08/16 19:12:26;;;;;;;6.3;3.2;;;;;;;17.63;72.19434;939.1418;;;;
2019/08/16 19:14:57;;;;;;;15.8;3.9;;;;;;;17.51;72.67383;939.0845;;;;
2019/08/16 19:17:23;;;;;;;11.6;4;;;;;;;17.52;72.33887;939.1239;;;;
2019/08/16 19:19:49;;;;;;;7.7;3.6;;;;;;;17.48;72.34473;939.0858;;;;
2019/08/16 19:22:32;;;;;;;9.5;3.2;;;;;;;17.46;71.99219;939.202;;;;
2019/08/16 19:25:09;;;;;;;6.5;3.1;;;;;;;17.41;71.62402;939.1937;;;;
2019/08/16 19:27:33;;;;;;;7.7;3.1;;;;;;;17.36;72.38184;939.1937;;;;
2019/08/16 19:30:01;;;;;;;10.9;7.6;;;;;;;17.3;72.18555;939.1238;;;;
2019/08/16 19:32:40;;;;;;;9.3;5;;;;;;;17.18;71.69141;939.1486;;;;
2019/08/16 19:35:43;;;;;;;9.2;5.7;;;;;;;17.03;72.38477;939.1082;;;;
2019/08/16 19:38:16;;;;;;;8.4;3.9;;;;;;;16.88;72.96191;939.1638;;;;
2019/08/16 19:40:53;;;;;;;6.2;3.6;;;;;;;16.96;73.35742;939.1345;;;;
2019/08/16 19:43:20;;;;;;;10;3.9;;;;;;;17.05;73.40723;939.1506;;;;
2019/08/16 19:46:35;;;;;;;8.1;4.1;;;;;;;17.06;72.56348;939.1649;;;;
2019/08/16 19:51:33;;;;;;;9;3.8;;;;;;;17.04;73.15234;939.2559;;;;
2019/08/16 19:54:41;;;;;;;6.8;3.4;;;;;;;17.13;72.83105;939.3231;;;;
2019/08/16 19:57:15;;;;;;;5.9;3.6;;;;;;;17.14;72.90234;939.2706;;;;
2019/08/16 20:02:37;;;;;;;8.9;3.5;;;;;;;16.92;73.04004;939.3008;;;;
2019/08/16 20:05:07;;;;;;;6.5;3.3;;;;;;;16.78;73.53613;939.2693;;;;
2019/08/16 20:07:43;;;;;;;8.2;3.1;;;;;;;16.74;73.65918;939.2762;;;;
2019/08/16 20:10:10;;;;;;;6.7;3.2;;;;;;;16.65;73.78125;939.2747;;;;
2019/08/16 20:12:35;;;;;;;7.7;3.3;;;;;;;16.55;74.36621;939.2901;;;;
2019/08/16 20:15:06;;;;;;;10.7;3.9;;;;;;;16.54;74.43555;939.3264;;;;
2019/08/16 20:18:00;;;;;;;8.7;3.4;;;;;;;16.5;74.77344;939.1886;;;;
2019/08/16 20:20:23;;;;;;;5.2;3.1;;;;;;;16.41;74.85254;939.2625;;;;
2019/08/16 20:22:44;;;;;;;5.9;3.3;;;;;;;16.4;75.15234;939.2512;;;;
2019/08/16 20:25:25;;;;;;;6.5;3.2;;;;;;;16.38;75.53027;939.2378;;;;
2019/08/16 20:27:50;;;;;;;8;3.2;;;;;;;16.41;75.29199;939.1708;;;;
2019/08/16 20:30:25;;;;;;;8.3;2.9;;;;;;;16.36;75.18066;939.1955;;;;
2019/08/16 20:32:56;;;;;;;6.3;3.1;;;;;;;16.3;75.38965;939.1994;;;;
2019/08/16 20:35:43;;;;;;;7.2;3;;;;;;;16.25;75.51855;939.175;;;;
2019/08/16 20:38:13;;;;;;;5.7;3.1;;;;;;;16.24;75.80664;939.1365;;;;
2019/08/16 20:40:54;;;;;;;6.3;2.8;;;;;;;16.26;75.61426;939.1242;;;;
2019/08/16 20:43:47;;;;;;;8.8;3;;;;;;;16.19;75.56641;939.1216;;;;
2019/08/16 20:45:50;;;;;;;8.3;3.1;;;;;;;16.14;75.87012;939.0964;;;;
2019/08/16 20:48:33;;;;;;;5.8;3.1;;;;;;;16.09;75.6416;939.06;;;;
2019/08/16 20:50:59;;;;;;;5.5;2.9;;;;;;;15.9;76.06055;939.0753;;;;
2019/08/16 20:54:02;;;;;;;6.5;3.3;;;;;;;15.79;76.66602;939.0856;;;;
2019/08/16 20:59:37;;;;;;;6.3;3.1;;;;;;;15.48;78.04297;939.1342;;;;
2019/08/16 21:02:21;;;;;;;6.7;3;;;;;;;15.54;78.31934;939.0912;;;;
2019/08/16 21:04:56;;;;;;;8.2;3.2;;;;;;;15.58;77.80664;939.0717;;;;
2019/08/16 21:07:37;;;;;;;8.1;3.1;;;;;;;15.5;77.87305;939.0811;;;;
2019/08/16 21:10:21;;;;;;;9;3.4;;;;;;;15.53;77.82129;939.0488;;;;
2019/08/16 21:12:47;;;;;;;6.9;3.2;;;;;;;15.59;77.75;939.0662;;;;
2019/08/16 21:15:26;;;;;;;5.5;3.2;;;;;;;15.43;78.13867;939.0577;;;;
2019/08/16 21:17:46;;;;;;;7.1;3.4;;;;;;;15.18;79.15527;939.1511;;;;
2019/08/16 21:20:11;;;;;;;6.9;3.5;;;;;;;15.36;78.62207;939.155;;;;
2019/08/16 21:22:39;;;;;;;6.2;3.5;;;;;;;15.38;78.30176;939.0497;;;;
2019/08/16 21:25:03;;;;;;;10.4;3.5;;;;;;;15.34;78.46875;939.0588;;;;
2019/08/16 21:27:47;;;;;;;8.8;3.7;;;;;;;15.39;78.32715;939.0889;;;;
2019/08/16 21:30:23;;;;;;;9.1;3.4;;;;;;;15.42;78.02148;938.9687;;;;
2019/08/16 21:32:53;;;;;;;8.5;3.2;;;;;;;15.35;77.96289;939.0363;;;;
2019/08/16 21:35:15;;;;;;;7.9;3.4;;;;;;;15.32;77.92188;939.0229;;;;
2019/08/16 21:37:52;;;;;;;8;3.2;;;;;;;15.28;78.28418;938.9686;;;;
2019/08/16 21:40:35;;;;;;;9.2;3.5;;;;;;;15.19;78.42969;938.9634;;;;
2019/08/16 21:42:53;;;;;;;6.5;3.3;;;;;;;15.17;78.53027;938.9017;;;;
2019/08/16 21:45:20;;;;;;;7.1;3.6;;;;;;;15.21;78.68652;938.9576;;;;
2019/08/16 21:50:41;;;;;;;7.2;3.4;;;;;;;14.95;79.53906;938.9608;;;;
2019/08/16 21:53:08;;;;;;;8.7;3.4;;;;;;;14.9;79.6123;938.9939;;;;
2019/08/16 21:55:42;;;;;;;5;3.2;;;;;;;14.93;79.43262;938.9376;;;;
2019/08/16 21:58:22;;;;;;;6.6;3.5;;;;;;;14.76;80.05859;938.9599;;;;
2019/08/16 22:03:50;;;;;;;7.3;3.5;;;;;;;14.85;79.50781;938.975;;;;
2019/08/16 22:06:36;;;;;;;5.8;3.3;;;;;;;14.85;79.5791;939.0175;;;;
2019/08/16 22:08:55;;;;;;;6.8;3.3;;;;;;;14.81;79.75488;939.0984;;;;
2019/08/16 22:11:30;;;;;;;7.7;3.3;;;;;;;14.63;80.13867;939.012;;;;
2019/08/16 22:14:09;;;;;;;6.7;3.4;;;;;;;14.48;80.91699;938.9875;;;;
2019/08/16 22:16:37;;;;;;;7.3;3.5;;;;;;;14.35;81.47949;939.07;;;;
2019/08/16 22:19:15;;;;;;;7.4;3.6;;;;;;;14.43;81.26563;939.1088;;;;
2019/08/16 22:21:46;;;;;;;5.8;3.4;;;;;;;14.59;80.55664;939.1753;;;;
2019/08/16 22:24:22;;;;;;;6.7;3.4;;;;;;;14.68;80.07813;939.1487;;;;
2019/08/16 22:26:54;;;;;;;6.1;3.7;;;;;;;14.58;80.65918;939.144;;;;
2019/08/16 22:29:46;;;;;;;7.2;3.5;;;;;;;14.7;80.16406;939.135;;;;
2019/08/16 22:32:12;;;;;;;6.9;3.5;;;;;;;14.74;79.93945;939.11;;;;
2019/08/16 22:34:44;;;;;;;9.4;3.7;;;;;;;14.83;79.58691;939.0898;;;;
2019/08/16 22:37:10;;;;;;;5.8;3.3;;;;;;;14.84;79.38086;939.0889;;;;
2019/08/16 22:39:51;;;;;;;8.2;3.4;;;;;;;14.82;79.44531;939.1339;;;;
2019/08/16 22:42:21;;;;;;;6.2;3.3;;;;;;;14.86;79.09668;939.0695;;;;
2019/08/16 22:44:47;;;;;;;6.8;3.3;;;;;;;14.78;79.15039;939.0192;;;;
2019/08/16 22:47:11;;;;;;;4.5;3.1;;;;;;;14.83;78.93164;939.0368;;;;
2019/08/16 22:49:53;;;;;;;8.8;3.3;;;;;;;14.69;79.36523;938.9539;;;;
2019/08/16 22:52:24;;;;;;;6.7;3.2;;;;;;;14.59;80.29199;938.9486;;;;
2019/08/16 22:54:46;;;;;;;8.7;3.3;;;;;;;14.64;79.84082;938.9261;;;;
2019/08/16 22:57:21;;;;;;;6.1;3.3;;;;;;;14.59;79.88867;938.9341;;;;
2019/08/16 23:02:17;;;;;;;8.2;3.2;;;;;;;14.59;79.71582;938.8972;;;;
2019/08/16 23:04:52;;;;;;;6.8;3.2;;;;;;;14.54;80.00586;938.8903;;;;
2019/08/16 23:07:25;;;;;;;5.9;3.3;;;;;;;14.42;80.41016;938.8152;;;;
2019/08/16 23:10:02;;;;;;;8.1;3.4;;;;;;;14.42;80.43457;938.8369;;;;
2019/08/16 23:12:31;;;;;;;6;3.2;;;;;;;14.36;80.83594;938.8192;;;;
2019/08/16 23:15:03;;;;;;;6.4;3.7;;;;;;;14;82.26758;938.8407;;;;
2019/08/16 23:17:34;;;;;;;8.3;3.3;;;;;;;13.93;82.68945;938.788;;;;
2019/08/16 23:20:09;;;;;;;7.2;3.5;;;;;;;13.77;83.46484;938.6985;;;;
2019/08/16 23:22:45;;;;;;;5.3;3.4;;;;;;;13.71;83.52344;938.661;;;;
2019/08/16 23:25:13;;;;;;;9.5;3.8;;;;;;;13.73;83.67676;938.6586;;;;
2019/08/16 23:27:36;;;;;;;9.3;3.5;;;;;;;13.92;82.62012;938.6376;;;;
2019/08/16 23:30:08;;;;;;;6.8;3.2;;;;;;;13.93;82.56445;938.6208;;;;
2019/08/16 23:32:39;;;;;;;8.6;3.4;;;;;;;13.93;82.46094;938.6576;;;;
2019/08/16 23:35:06;;;;;;;9;5.4;;;;;;;13.95;82.40625;938.6006;;;;
2019/08/16 23:37:49;;;;;;;8.8;3.9;;;;;;;14.1;81.8252;938.5812;;;;
2019/08/16 23:40:20;;;;;;;7.4;4.2;;;;;;;14.06;81.90918;938.6119;;;;
2019/08/16 23:42:43;;;;;;;8;3.8;;;;;;;14.01;81.79688;938.5884;;;;
2019/08/16 23:45:16;;;;;;;5.8;3.7;;;;;;;14.08;81.86816;938.6261;;;;
2019/08/16 23:47:48;;;;;;;6.8;3.7;;;;;;;14.18;81.13672;938.5658;;;;
2019/08/16 23:50:21;;;;;;;8.7;3.6;;;;;;;14.14;81.50977;938.509;;;;
2019/08/16 23:52:52;;;;;;;10.1;3.8;;;;;;;14.03;82.11133;938.5247;;;;
2019/08/16 23:55:48;;;;;;;6.9;3.5;;;;;;;14.12;81.81738;938.5436;;;;
2019/08/16 23:58:00;;;;;;;7.9;3.6;;;;;;;14.19;81.04785;938.5536;;;;
